HEMA

Marsa Alam International Airport

Marsa Alam, Egypt
METAR HEMA 260300Z 25006KT CAVOK 21/M02 Q1008 NOSIG
Observed Flight Rules
Feb-26 @ 03:00 UTC (32 minutes ago) Visual Flight Rules
Wind Visibility Clouds
250° at 6 knots 10,000+ meters
  • Clear skies
Temperatures Readings
Current 21°C / 70°F
Dewpoint -2°C / 28°F
Humidity 21%
Altimeter 29.76" Hg
Pressure 1008 hPa
Elevation 77
METAR HEMA 260300Z 25006KT CAVOK 21/M02 Q1008 NOSIG
Observed Flight Rules
Feb-26 @ 03:00 UTC
(32 minutes ago)
VFR
Wind Visibility
250° at 6 knots 10,000+ meters
Clouds
  • Clear skies
Temperature Dewpoint
21°C / 70°F -2°C / 28°F
Humidity Altimeter Pressure
21% 29.76" Hg 1008 hPa